sensor_id;sensor_type;location;lat;lon;timestamp;P1;durP1;ratioP1;P2;durP2;ratioP2
2706;SDS011;7819;48.046;7.642;2023-04-15T00:01:47;2.13;;;1.33;;
2706;SDS011;7819;48.046;7.642;2023-04-15T00:04:12;1.80;;;1.23;;
2706;SDS011;7819;48.046;7.642;2023-04-15T00:06:37;1.93;;;1.23;;
2706;SDS011;7819;48.046;7.642;2023-04-15T00:09:04;1.43;;;1.00;;
2706;SDS011;7819;48.046;7.642;2023-04-15T00:11:29;1.97;;;0.90;;
2706;SDS011;7819;48.046;7.642;2023-04-15T00:13:54;3.07;;;1.10;;
2706;SDS011;7819;48.046;7.642;2023-04-15T00:16:19;1.53;;;1.00;;
2706;SDS011;7819;48.046;7.642;2023-04-15T00:18:45;3.00;;;0.90;;
2706;SDS011;7819;48.046;7.642;2023-04-15T00:21:10;1.70;;;1.20;;
2706;SDS011;7819;48.046;7.642;2023-04-15T00:23:36;1.80;;;1.10;;
2706;SDS011;7819;48.046;7.642;2023-04-15T00:26:01;2.33;;;1.90;;
2706;SDS011;7819;48.046;7.642;2023-04-15T00:28:26;3.63;;;1.17;;
2706;SDS011;7819;48.046;7.642;2023-04-15T00:30:52;2.43;;;1.00;;
2706;SDS011;7819;48.046;7.642;2023-04-15T00:33:17;2.63;;;1.33;;
2706;SDS011;7819;48.046;7.642;2023-04-15T00:35:42;2.03;;;1.03;;
2706;SDS011;7819;48.046;7.642;2023-04-15T00:38:07;1.63;;;1.10;;
2706;SDS011;7819;48.046;7.642;2023-04-15T00:40:33;2.30;;;1.20;;
2706;SDS011;7819;48.046;7.642;2023-04-15T00:42:58;5.00;;;1.13;;
2706;SDS011;7819;48.046;7.642;2023-04-15T00:45:24;1.47;;;1.00;;
2706;SDS011;7819;48.046;7.642;2023-04-15T00:47:49;2.13;;;1.30;;
2706;SDS011;7819;48.046;7.642;2023-04-15T00:50:15;3.47;;;1.10;;
2706;SDS011;7819;48.046;7.642;2023-04-15T00:52:40;1.60;;;1.10;;
2706;SDS011;7819;48.046;7.642;2023-04-15T00:55:05;3.30;;;1.03;;
2706;SDS011;7819;48.046;7.642;2023-04-15T00:57:31;1.97;;;1.40;;
2706;SDS011;7819;48.046;7.642;2023-04-15T00:59:57;3.10;;;1.40;;
2706;SDS011;7819;48.046;7.642;2023-04-15T01:02:22;5.10;;;1.37;;
2706;SDS011;7819;48.046;7.642;2023-04-15T01:04:47;2.20;;;1.10;;
2706;SDS011;7819;48.046;7.642;2023-04-15T01:07:13;3.20;;;1.17;;
2706;SDS011;7819;48.046;7.642;2023-04-15T01:09:38;4.60;;;1.30;;
2706;SDS011;7819;48.046;7.642;2023-04-15T01:12:04;2.20;;;1.13;;
2706;SDS011;7819;48.046;7.642;2023-04-15T01:14:29;4.83;;;1.70;;
2706;SDS011;7819;48.046;7.642;2023-04-15T01:16:55;2.60;;;1.30;;
2706;SDS011;7819;48.046;7.642;2023-04-15T01:19:20;1.97;;;1.00;;
2706;SDS011;7819;48.046;7.642;2023-04-15T01:21:46;1.80;;;1.37;;
2706;SDS011;7819;48.046;7.642;2023-04-15T01:24:11;2.60;;;1.40;;
2706;SDS011;7819;48.046;7.642;2023-04-15T01:26:37;2.20;;;1.17;;
2706;SDS011;7819;48.046;7.642;2023-04-15T01:29:03;2.13;;;1.30;;
2706;SDS011;7819;48.046;7.642;2023-04-15T01:31:28;2.47;;;1.37;;
2706;SDS011;7819;48.046;7.642;2023-04-15T01:33:53;2.17;;;1.17;;
2706;SDS011;7819;48.046;7.642;2023-04-15T01:36:18;2.90;;;1.47;;
2706;SDS011;7819;48.046;7.642;2023-04-15T01:38:43;2.30;;;1.23;;
2706;SDS011;7819;48.046;7.642;2023-04-15T01:41:09;4.23;;;2.03;;
2706;SDS011;7819;48.046;7.642;2023-04-15T01:43:35;3.13;;;1.17;;
2706;SDS011;7819;48.046;7.642;2023-04-15T01:46:03;2.10;;;1.13;;
2706;SDS011;7819;48.046;7.642;2023-04-15T01:48:29;2.17;;;1.10;;
2706;SDS011;7819;48.046;7.642;2023-04-15T01:50:54;1.47;;;0.87;;
2706;SDS011;7819;48.046;7.642;2023-04-15T01:53:22;1.67;;;1.13;;
2706;SDS011;7819;48.046;7.642;2023-04-15T01:55:47;2.87;;;1.13;;
2706;SDS011;7819;48.046;7.642;2023-04-15T01:58:12;2.20;;;1.10;;
2706;SDS011;7819;48.046;7.642;2023-04-15T02:00:37;1.40;;;1.10;;
2706;SDS011;7819;48.046;7.642;2023-04-15T02:03:02;2.03;;;0.90;;
2706;SDS011;7819;48.046;7.642;2023-04-15T02:05:28;2.63;;;0.97;;
2706;SDS011;7819;48.046;7.642;2023-04-15T02:07:53;2.23;;;1.10;;
2706;SDS011;7819;48.046;7.642;2023-04-15T02:10:18;1.60;;;0.80;;
2706;SDS011;7819;48.046;7.642;2023-04-15T02:12:43;2.07;;;0.90;;
2706;SDS011;7819;48.046;7.642;2023-04-15T02:15:09;1.50;;;0.97;;
2706;SDS011;7819;48.046;7.642;2023-04-15T02:17:34;1.40;;;0.80;;
2706;SDS011;7819;48.046;7.642;2023-04-15T02:20:00;2.47;;;1.07;;
2706;SDS011;7819;48.046;7.642;2023-04-15T02:22:25;1.20;;;0.93;;
2706;SDS011;7819;48.046;7.642;2023-04-15T02:24:51;2.70;;;1.50;;
2706;SDS011;7819;48.046;7.642;2023-04-15T02:27:16;2.97;;;1.03;;
2706;SDS011;7819;48.046;7.642;2023-04-15T02:29:42;1.90;;;0.90;;
2706;SDS011;7819;48.046;7.642;2023-04-15T02:32:08;3.60;;;1.07;;
2706;SDS011;7819;48.046;7.642;2023-04-15T02:34:33;1.20;;;0.80;;
2706;SDS011;7819;48.046;7.642;2023-04-15T02:36:58;2.17;;;0.90;;
2706;SDS011;7819;48.046;7.642;2023-04-15T02:39:23;1.87;;;1.10;;
2706;SDS011;7819;48.046;7.642;2023-04-15T02:41:49;1.20;;;0.80;;
2706;SDS011;7819;48.046;7.642;2023-04-15T02:44:17;5.07;;;1.00;;
2706;SDS011;7819;48.046;7.642;2023-04-15T02:46:47;2.67;;;1.00;;
2706;SDS011;7819;48.046;7.642;2023-04-15T02:49:14;2.43;;;1.20;;
2706;SDS011;7819;48.046;7.642;2023-04-15T02:51:40;1.77;;;0.90;;
2706;SDS011;7819;48.046;7.642;2023-04-15T02:54:05;3.07;;;1.03;;
2706;SDS011;7819;48.046;7.642;2023-04-15T02:56:31;4.63;;;1.10;;
2706;SDS011;7819;48.046;7.642;2023-04-15T02:58:57;1.60;;;0.83;;
2706;SDS011;7819;48.046;7.642;2023-04-15T03:01:22;1.27;;;0.87;;
2706;SDS011;7819;48.046;7.642;2023-04-15T03:03:47;1.23;;;0.80;;
2706;SDS011;7819;48.046;7.642;2023-04-15T03:06:12;1.63;;;0.70;;
2706;SDS011;7819;48.046;7.642;2023-04-15T03:08:38;1.60;;;1.07;;
2706;SDS011;7819;48.046;7.642;2023-04-15T03:11:03;1.83;;;0.80;;
2706;SDS011;7819;48.046;7.642;2023-04-15T03:13:28;3.33;;;1.07;;
2706;SDS011;7819;48.046;7.642;2023-04-15T03:15:53;1.97;;;1.10;;
2706;SDS011;7819;48.046;7.642;2023-04-15T03:18:19;2.00;;;1.03;;
2706;SDS011;7819;48.046;7.642;2023-04-15T03:20:44;3.13;;;1.27;;
2706;SDS011;7819;48.046;7.642;2023-04-15T03:23:09;1.40;;;0.90;;
2706;SDS011;7819;48.046;7.642;2023-04-15T03:25:35;1.70;;;0.90;;
2706;SDS011;7819;48.046;7.642;2023-04-15T03:28:01;1.20;;;0.83;;
2706;SDS011;7819;48.046;7.642;2023-04-15T03:30:27;1.40;;;1.17;;
2706;SDS011;7819;48.046;7.642;2023-04-15T03:32:52;2.93;;;0.90;;
2706;SDS011;7819;48.046;7.642;2023-04-15T03:35:17;3.73;;;1.67;;
2706;SDS011;7819;48.046;7.642;2023-04-15T03:37:43;1.27;;;1.17;;
2706;SDS011;7819;48.046;7.642;2023-04-15T03:40:08;1.33;;;1.23;;
2706;SDS011;7819;48.046;7.642;2023-04-15T03:42:33;2.47;;;1.40;;
2706;SDS011;7819;48.046;7.642;2023-04-15T03:44:59;1.40;;;1.00;;
2706;SDS011;7819;48.046;7.642;2023-04-15T03:47:24;1.53;;;1.30;;
2706;SDS011;7819;48.046;7.642;2023-04-15T03:49:49;1.70;;;1.20;;
2706;SDS011;7819;48.046;7.642;2023-04-15T03:52:15;1.70;;;1.40;;
2706;SDS011;7819;48.046;7.642;2023-04-15T03:54:40;2.77;;;0.93;;
2706;SDS011;7819;48.046;7.642;2023-04-15T03:57:05;2.70;;;1.17;;
2706;SDS011;7819;48.046;7.642;2023-04-15T03:59:30;2.20;;;1.30;;
2706;SDS011;7819;48.046;7.642;2023-04-15T04:01:56;1.73;;;1.07;;
2706;SDS011;7819;48.046;7.642;2023-04-15T04:04:21;2.70;;;1.53;;
2706;SDS011;7819;48.046;7.642;2023-04-15T04:06:46;4.47;;;1.80;;
2706;SDS011;7819;48.046;7.642;2023-04-15T04:09:11;3.03;;;1.23;;
2706;SDS011;7819;48.046;7.642;2023-04-15T04:11:36;3.50;;;1.60;;
2706;SDS011;7819;48.046;7.642;2023-04-15T04:14:02;2.40;;;0.93;;
2706;SDS011;7819;48.046;7.642;2023-04-15T04:16:27;1.37;;;1.10;;
2706;SDS011;7819;48.046;7.642;2023-04-15T04:18:52;1.30;;;1.00;;
2706;SDS011;7819;48.046;7.642;2023-04-15T04:21:17;2.97;;;1.47;;
2706;SDS011;7819;48.046;7.642;2023-04-15T04:23:42;3.13;;;1.53;;
2706;SDS011;7819;48.046;7.642;2023-04-15T04:26:08;2.93;;;1.83;;
2706;SDS011;7819;48.046;7.642;2023-04-15T04:28:33;3.57;;;1.70;;
2706;SDS011;7819;48.046;7.642;2023-04-15T04:30:59;4.70;;;1.17;;
2706;SDS011;7819;48.046;7.642;2023-04-15T04:33:24;1.53;;;1.17;;
2706;SDS011;7819;48.046;7.642;2023-04-15T04:35:49;2.50;;;1.20;;
2706;SDS011;7819;48.046;7.642;2023-04-15T04:38:14;2.80;;;1.40;;
2706;SDS011;7819;48.046;7.642;2023-04-15T04:40:40;1.73;;;1.30;;
2706;SDS011;7819;48.046;7.642;2023-04-15T04:43:05;4.60;;;1.43;;
2706;SDS011;7819;48.046;7.642;2023-04-15T04:45:30;2.63;;;1.60;;
2706;SDS011;7819;48.046;7.642;2023-04-15T04:47:56;3.23;;;1.63;;
2706;SDS011;7819;48.046;7.642;2023-04-15T04:50:21;2.10;;;1.40;;
2706;SDS011;7819;48.046;7.642;2023-04-15T04:52:46;2.80;;;2.40;;
2706;SDS011;7819;48.046;7.642;2023-04-15T04:55:11;3.00;;;1.63;;
2706;SDS011;7819;48.046;7.642;2023-04-15T04:57:37;3.93;;;2.00;;
2706;SDS011;7819;48.046;7.642;2023-04-15T05:00:03;6.43;;;1.67;;
2706;SDS011;7819;48.046;7.642;2023-04-15T05:02:29;3.90;;;2.70;;
2706;SDS011;7819;48.046;7.642;2023-04-15T05:04:54;2.37;;;2.17;;
2706;SDS011;7819;48.046;7.642;2023-04-15T05:07:20;3.30;;;2.20;;
2706;SDS011;7819;48.046;7.642;2023-04-15T05:09:45;3.40;;;1.57;;
2706;SDS011;7819;48.046;7.642;2023-04-15T05:12:10;1.57;;;1.30;;
2706;SDS011;7819;48.046;7.642;2023-04-15T05:14:39;3.20;;;1.50;;
2706;SDS011;7819;48.046;7.642;2023-04-15T05:17:04;5.00;;;2.57;;
2706;SDS011;7819;48.046;7.642;2023-04-15T05:19:29;3.40;;;1.83;;
2706;SDS011;7819;48.046;7.642;2023-04-15T05:21:54;4.77;;;1.87;;
2706;SDS011;7819;48.046;7.642;2023-04-15T05:24:20;2.60;;;1.60;;
2706;SDS011;7819;48.046;7.642;2023-04-15T05:26:45;4.03;;;1.80;;
2706;SDS011;7819;48.046;7.642;2023-04-15T05:29:11;4.73;;;2.30;;
2706;SDS011;7819;48.046;7.642;2023-04-15T05:31:36;3.30;;;3.03;;
2706;SDS011;7819;48.046;7.642;2023-04-15T05:34:01;4.80;;;3.57;;
2706;SDS011;7819;48.046;7.642;2023-04-15T05:36:27;4.20;;;3.60;;
2706;SDS011;7819;48.046;7.642;2023-04-15T05:38:52;7.97;;;3.40;;
2706;SDS011;7819;48.046;7.642;2023-04-15T05:41:18;6.33;;;4.93;;
2706;SDS011;7819;48.046;7.642;2023-04-15T05:43:43;5.23;;;4.07;;
2706;SDS011;7819;48.046;7.642;2023-04-15T05:46:08;8.50;;;4.70;;
2706;SDS011;7819;48.046;7.642;2023-04-15T05:48:33;14.60;;;3.97;;
2706;SDS011;7819;48.046;7.642;2023-04-15T05:50:59;5.30;;;3.50;;
2706;SDS011;7819;48.046;7.642;2023-04-15T05:53:24;11.33;;;4.63;;
2706;SDS011;7819;48.046;7.642;2023-04-15T05:55:49;10.57;;;6.20;;
2706;SDS011;7819;48.046;7.642;2023-04-15T05:58:15;12.40;;;9.50;;
2706;SDS011;7819;48.046;7.642;2023-04-15T06:00:40;15.37;;;11.67;;
2706;SDS011;7819;48.046;7.642;2023-04-15T06:03:05;17.67;;;14.13;;
2706;SDS011;7819;48.046;7.642;2023-04-15T06:05:31;7.27;;;4.87;;
2706;SDS011;7819;48.046;7.642;2023-04-15T06:07:57;6.20;;;2.97;;
2706;SDS011;7819;48.046;7.642;2023-04-15T06:10:22;4.30;;;2.73;;
2706;SDS011;7819;48.046;7.642;2023-04-15T06:12:47;4.90;;;3.20;;
2706;SDS011;7819;48.046;7.642;2023-04-15T06:15:12;7.33;;;4.50;;
2706;SDS011;7819;48.046;7.642;2023-04-15T06:17:38;4.80;;;3.30;;
2706;SDS011;7819;48.046;7.642;2023-04-15T06:20:03;4.57;;;3.60;;
2706;SDS011;7819;48.046;7.642;2023-04-15T06:22:28;5.50;;;3.53;;
2706;SDS011;7819;48.046;7.642;2023-04-15T06:24:53;5.43;;;3.87;;
2706;SDS011;7819;48.046;7.642;2023-04-15T06:27:19;4.80;;;4.40;;
2706;SDS011;7819;48.046;7.642;2023-04-15T06:29:44;5.27;;;4.77;;
2706;SDS011;7819;48.046;7.642;2023-04-15T06:32:10;5.67;;;4.23;;
2706;SDS011;7819;48.046;7.642;2023-04-15T06:34:36;7.40;;;4.73;;
2706;SDS011;7819;48.046;7.642;2023-04-15T06:37:01;5.80;;;4.90;;
2706;SDS011;7819;48.046;7.642;2023-04-15T06:39:26;7.27;;;4.70;;
2706;SDS011;7819;48.046;7.642;2023-04-15T06:41:51;4.33;;;3.93;;
2706;SDS011;7819;48.046;7.642;2023-04-15T06:44:17;5.20;;;3.63;;
2706;SDS011;7819;48.046;7.642;2023-04-15T06:46:42;4.53;;;3.73;;
2706;SDS011;7819;48.046;7.642;2023-04-15T06:49:07;5.40;;;3.90;;
2706;SDS011;7819;48.046;7.642;2023-04-15T06:51:33;3.80;;;3.20;;
2706;SDS011;7819;48.046;7.642;2023-04-15T06:53:59;3.10;;;2.53;;
2706;SDS011;7819;48.046;7.642;2023-04-15T06:56:24;5.13;;;2.40;;
2706;SDS011;7819;48.046;7.642;2023-04-15T06:58:49;2.97;;;2.40;;
2706;SDS011;7819;48.046;7.642;2023-04-15T07:01:14;3.50;;;2.00;;
2706;SDS011;7819;48.046;7.642;2023-04-15T07:03:39;3.43;;;2.40;;
2706;SDS011;7819;48.046;7.642;2023-04-15T07:06:05;3.40;;;1.83;;
2706;SDS011;7819;48.046;7.642;2023-04-15T07:08:31;5.03;;;3.03;;
2706;SDS011;7819;48.046;7.642;2023-04-15T07:10:57;4.87;;;4.07;;
2706;SDS011;7819;48.046;7.642;2023-04-15T07:13:22;3.27;;;2.80;;
2706;SDS011;7819;48.046;7.642;2023-04-15T07:15:47;4.73;;;3.07;;
2706;SDS011;7819;48.046;7.642;2023-04-15T07:18:13;3.30;;;2.50;;
2706;SDS011;7819;48.046;7.642;2023-04-15T07:20:38;3.17;;;2.07;;
2706;SDS011;7819;48.046;7.642;2023-04-15T07:23:03;3.17;;;2.47;;
2706;SDS011;7819;48.046;7.642;2023-04-15T07:25:29;6.77;;;3.37;;
2706;SDS011;7819;48.046;7.642;2023-04-15T07:27:54;4.60;;;2.93;;
2706;SDS011;7819;48.046;7.642;2023-04-15T07:30:19;2.60;;;2.10;;
2706;SDS011;7819;48.046;7.642;2023-04-15T07:32:44;9.00;;;6.40;;
2706;SDS011;7819;48.046;7.642;2023-04-15T07:35:10;13.30;;;6.57;;
2706;SDS011;7819;48.046;7.642;2023-04-15T07:37:35;3.83;;;2.53;;
2706;SDS011;7819;48.046;7.642;2023-04-15T07:40:01;7.00;;;4.00;;
2706;SDS011;7819;48.046;7.642;2023-04-15T07:42:28;4.63;;;3.60;;
2706;SDS011;7819;48.046;7.642;2023-04-15T07:44:53;3.57;;;2.60;;
2706;SDS011;7819;48.046;7.642;2023-04-15T07:47:18;6.90;;;4.70;;
2706;SDS011;7819;48.046;7.642;2023-04-15T07:49:43;3.17;;;2.40;;
2706;SDS011;7819;48.046;7.642;2023-04-15T07:52:09;3.17;;;2.10;;
2706;SDS011;7819;48.046;7.642;2023-04-15T07:54:34;3.33;;;2.93;;
2706;SDS011;7819;48.046;7.642;2023-04-15T07:56:59;6.03;;;3.40;;
2706;SDS011;7819;48.046;7.642;2023-04-15T07:59:25;4.33;;;2.90;;
2706;SDS011;7819;48.046;7.642;2023-04-15T08:01:51;3.03;;;2.57;;
2706;SDS011;7819;48.046;7.642;2023-04-15T08:04:17;4.30;;;3.30;;
2706;SDS011;7819;48.046;7.642;2023-04-15T08:06:42;6.03;;;4.60;;
2706;SDS011;7819;48.046;7.642;2023-04-15T08:09:07;12.40;;;3.97;;
2706;SDS011;7819;48.046;7.642;2023-04-15T08:11:33;5.80;;;3.30;;
2706;SDS011;7819;48.046;7.642;2023-04-15T08:13:58;4.60;;;2.80;;
2706;SDS011;7819;48.046;7.642;2023-04-15T08:16:24;6.60;;;3.10;;
2706;SDS011;7819;48.046;7.642;2023-04-15T08:18:50;4.53;;;3.30;;
2706;SDS011;7819;48.046;7.642;2023-04-15T08:21:16;4.07;;;3.00;;
2706;SDS011;7819;48.046;7.642;2023-04-15T08:23:42;5.97;;;3.47;;
2706;SDS011;7819;48.046;7.642;2023-04-15T08:26:07;5.67;;;3.77;;
2706;SDS011;7819;48.046;7.642;2023-04-15T08:28:33;4.07;;;2.77;;
2706;SDS011;7819;48.046;7.642;2023-04-15T08:30:58;4.57;;;3.30;;
2706;SDS011;7819;48.046;7.642;2023-04-15T08:33:23;3.93;;;2.70;;
2706;SDS011;7819;48.046;7.642;2023-04-15T08:35:48;3.93;;;3.40;;
2706;SDS011;7819;48.046;7.642;2023-04-15T08:38:13;9.53;;;4.40;;
2706;SDS011;7819;48.046;7.642;2023-04-15T08:40:40;7.53;;;4.50;;
2706;SDS011;7819;48.046;7.642;2023-04-15T08:43:05;11.50;;;5.50;;
2706;SDS011;7819;48.046;7.642;2023-04-15T08:45:32;11.13;;;4.80;;
2706;SDS011;7819;48.046;7.642;2023-04-15T08:47:57;7.40;;;4.50;;
2706;SDS011;7819;48.046;7.642;2023-04-15T08:50:22;7.00;;;4.30;;
2706;SDS011;7819;48.046;7.642;2023-04-15T08:52:48;8.40;;;3.73;;
2706;SDS011;7819;48.046;7.642;2023-04-15T08:55:13;4.80;;;2.60;;
2706;SDS011;7819;48.046;7.642;2023-04-15T08:57:39;6.30;;;2.43;;
2706;SDS011;7819;48.046;7.642;2023-04-15T09:00:05;2.70;;;2.10;;
2706;SDS011;7819;48.046;7.642;2023-04-15T09:02:30;3.13;;;2.50;;
2706;SDS011;7819;48.046;7.642;2023-04-15T09:04:55;5.90;;;2.17;;
2706;SDS011;7819;48.046;7.642;2023-04-15T09:07:21;4.47;;;2.20;;
2706;SDS011;7819;48.046;7.642;2023-04-15T09:09:47;11.00;;;2.80;;
2706;SDS011;7819;48.046;7.642;2023-04-15T09:12:12;5.57;;;3.07;;
2706;SDS011;7819;48.046;7.642;2023-04-15T09:14:39;5.70;;;2.53;;
2706;SDS011;7819;48.046;7.642;2023-04-15T09:17:04;5.00;;;2.37;;
2706;SDS011;7819;48.046;7.642;2023-04-15T09:19:30;2.23;;;1.93;;
2706;SDS011;7819;48.046;7.642;2023-04-15T09:21:56;3.50;;;2.33;;
2706;SDS011;7819;48.046;7.642;2023-04-15T09:24:21;5.13;;;2.50;;
2706;SDS011;7819;48.046;7.642;2023-04-15T09:26:47;5.33;;;2.40;;
2706;SDS011;7819;48.046;7.642;2023-04-15T09:29:12;3.57;;;1.63;;
2706;SDS011;7819;48.046;7.642;2023-04-15T09:31:38;2.60;;;2.03;;
2706;SDS011;7819;48.046;7.642;2023-04-15T09:34:03;1.90;;;1.70;;
2706;SDS011;7819;48.046;7.642;2023-04-15T09:36:29;2.27;;;1.80;;
2706;SDS011;7819;48.046;7.642;2023-04-15T09:38:55;8.03;;;2.90;;
2706;SDS011;7819;48.046;7.642;2023-04-15T09:41:21;5.43;;;2.40;;
2706;SDS011;7819;48.046;7.642;2023-04-15T09:43:46;5.20;;;3.13;;
2706;SDS011;7819;48.046;7.642;2023-04-15T09:46:11;2.50;;;2.20;;
2706;SDS011;7819;48.046;7.642;2023-04-15T09:48:36;4.90;;;2.50;;
2706;SDS011;7819;48.046;7.642;2023-04-15T09:51:01;4.93;;;2.50;;
2706;SDS011;7819;48.046;7.642;2023-04-15T09:53:27;3.33;;;2.30;;
2706;SDS011;7819;48.046;7.642;2023-04-15T09:58:19;3.00;;;2.53;;
2706;SDS011;7819;48.046;7.642;2023-04-15T10:00:45;4.43;;;2.60;;
2706;SDS011;7819;48.046;7.642;2023-04-15T10:03:11;4.50;;;2.53;;
2706;SDS011;7819;48.046;7.642;2023-04-15T10:05:36;3.20;;;2.20;;
2706;SDS011;7819;48.046;7.642;2023-04-15T10:08:02;4.03;;;2.40;;
2706;SDS011;7819;48.046;7.642;2023-04-15T10:10:28;3.40;;;2.63;;
2706;SDS011;7819;48.046;7.642;2023-04-15T10:12:53;9.83;;;3.50;;
2706;SDS011;7819;48.046;7.642;2023-04-15T10:15:19;2.80;;;2.07;;
2706;SDS011;7819;48.046;7.642;2023-04-15T10:17:44;4.43;;;3.07;;
2706;SDS011;7819;48.046;7.642;2023-04-15T10:20:11;2.50;;;1.80;;
2706;SDS011;7819;48.046;7.642;2023-04-15T10:22:38;2.70;;;1.50;;
2706;SDS011;7819;48.046;7.642;2023-04-15T10:25:04;4.03;;;1.43;;
2706;SDS011;7819;48.046;7.642;2023-04-15T10:27:29;2.80;;;2.00;;
2706;SDS011;7819;48.046;7.642;2023-04-15T10:29:55;2.53;;;1.60;;
2706;SDS011;7819;48.046;7.642;2023-04-15T10:32:20;3.63;;;1.50;;
2706;SDS011;7819;48.046;7.642;2023-04-15T10:34:46;3.00;;;1.83;;
2706;SDS011;7819;48.046;7.642;2023-04-15T10:37:17;3.90;;;2.17;;
2706;SDS011;7819;48.046;7.642;2023-04-15T10:39:43;2.10;;;1.67;;
2706;SDS011;7819;48.046;7.642;2023-04-15T10:42:15;3.10;;;1.57;;
2706;SDS011;7819;48.046;7.642;2023-04-15T10:44:41;2.33;;;1.50;;
2706;SDS011;7819;48.046;7.642;2023-04-15T10:47:14;2.10;;;1.50;;
2706;SDS011;7819;48.046;7.642;2023-04-15T10:49:43;2.27;;;1.60;;
2706;SDS011;7819;48.046;7.642;2023-04-15T10:52:09;2.43;;;1.63;;
2706;SDS011;7819;48.046;7.642;2023-04-15T10:54:34;2.00;;;1.70;;
2706;SDS011;7819;48.046;7.642;2023-04-15T10:59:28;2.87;;;1.70;;
2706;SDS011;7819;48.046;7.642;2023-04-15T11:01:54;3.10;;;1.87;;
2706;SDS011;7819;48.046;7.642;2023-04-15T11:04:57;2.40;;;1.47;;
2706;SDS011;7819;48.046;7.642;2023-04-15T11:07:15;2.00;;;1.70;;
2706;SDS011;7819;48.046;7.642;2023-04-15T11:09:56;2.70;;;1.47;;
2706;SDS011;7819;48.046;7.642;2023-04-15T11:12:21;2.00;;;1.37;;
2706;SDS011;7819;48.046;7.642;2023-04-15T11:14:47;3.03;;;1.90;;
2706;SDS011;7819;48.046;7.642;2023-04-15T11:17:12;2.00;;;1.23;;
2706;SDS011;7819;48.046;7.642;2023-04-15T11:19:37;2.70;;;1.50;;
2706;SDS011;7819;48.046;7.642;2023-04-15T11:22:09;3.00;;;1.30;;
2706;SDS011;7819;48.046;7.642;2023-04-15T11:24:34;3.03;;;1.30;;
2706;SDS011;7819;48.046;7.642;2023-04-15T11:27:00;2.50;;;1.80;;
2706;SDS011;7819;48.046;7.642;2023-04-15T11:29:29;5.07;;;1.77;;
2706;SDS011;7819;48.046;7.642;2023-04-15T11:32:08;4.10;;;1.67;;
2706;SDS011;7819;48.046;7.642;2023-04-15T11:34:33;2.20;;;1.60;;
2706;SDS011;7819;48.046;7.642;2023-04-15T11:37:02;9.87;;;3.20;;
2706;SDS011;7819;48.046;7.642;2023-04-15T11:39:27;2.30;;;1.40;;
2706;SDS011;7819;48.046;7.642;2023-04-15T11:41:53;7.07;;;2.23;;
2706;SDS011;7819;48.046;7.642;2023-04-15T11:44:18;1.70;;;1.30;;
2706;SDS011;7819;48.046;7.642;2023-04-15T11:46:43;3.03;;;2.10;;
2706;SDS011;7819;48.046;7.642;2023-04-15T11:49:08;2.30;;;1.50;;
2706;SDS011;7819;48.046;7.642;2023-04-15T11:51:34;5.93;;;1.80;;
2706;SDS011;7819;48.046;7.642;2023-04-15T11:53:59;2.90;;;2.00;;
2706;SDS011;7819;48.046;7.642;2023-04-15T11:56:25;2.10;;;1.33;;
2706;SDS011;7819;48.046;7.642;2023-04-15T11:58:56;2.70;;;2.07;;
2706;SDS011;7819;48.046;7.642;2023-04-15T12:01:34;2.40;;;1.80;;
2706;SDS011;7819;48.046;7.642;2023-04-15T12:04:00;3.93;;;1.53;;
2706;SDS011;7819;48.046;7.642;2023-04-15T12:06:30;2.93;;;1.73;;
2706;SDS011;7819;48.046;7.642;2023-04-15T12:13:52;1.90;;;1.47;;
2706;SDS011;7819;48.046;7.642;2023-04-15T12:16:18;2.77;;;1.60;;
2706;SDS011;7819;48.046;7.642;2023-04-15T12:18:49;2.27;;;1.30;;
2706;SDS011;7819;48.046;7.642;2023-04-15T12:21:17;10.40;;;4.10;;
2706;SDS011;7819;48.046;7.642;2023-04-15T12:26:14;4.23;;;2.07;;
2706;SDS011;7819;48.046;7.642;2023-04-15T12:28:40;3.23;;;2.30;;
2706;SDS011;7819;48.046;7.642;2023-04-15T12:31:08;3.23;;;1.70;;
2706;SDS011;7819;48.046;7.642;2023-04-15T12:33:34;2.43;;;1.30;;
2706;SDS011;7819;48.046;7.642;2023-04-15T12:35:59;4.17;;;1.40;;
2706;SDS011;7819;48.046;7.642;2023-04-15T12:38:24;3.00;;;1.67;;
2706;SDS011;7819;48.046;7.642;2023-04-15T12:40:49;3.03;;;1.90;;
2706;SDS011;7819;48.046;7.642;2023-04-15T12:43:15;2.47;;;1.20;;
2706;SDS011;7819;48.046;7.642;2023-04-15T12:45:40;3.93;;;1.93;;
2706;SDS011;7819;48.046;7.642;2023-04-15T12:48:06;2.50;;;1.40;;
2706;SDS011;7819;48.046;7.642;2023-04-15T12:50:33;4.73;;;1.80;;
2706;SDS011;7819;48.046;7.642;2023-04-15T12:52:58;2.10;;;1.43;;
2706;SDS011;7819;48.046;7.642;2023-04-15T12:55:23;2.47;;;1.10;;
2706;SDS011;7819;48.046;7.642;2023-04-15T12:57:48;5.00;;;3.10;;
2706;SDS011;7819;48.046;7.642;2023-04-15T13:00:13;2.47;;;1.47;;
2706;SDS011;7819;48.046;7.642;2023-04-15T13:02:39;1.97;;;1.63;;
2706;SDS011;7819;48.046;7.642;2023-04-15T13:05:04;2.17;;;1.60;;
2706;SDS011;7819;48.046;7.642;2023-04-15T13:07:29;2.30;;;1.03;;
2706;SDS011;7819;48.046;7.642;2023-04-15T13:09:54;3.70;;;1.20;;
2706;SDS011;7819;48.046;7.642;2023-04-15T13:12:19;2.30;;;1.40;;
2706;SDS011;7819;48.046;7.642;2023-04-15T13:14:45;2.93;;;1.60;;
2706;SDS011;7819;48.046;7.642;2023-04-15T13:17:10;3.33;;;1.40;;
2706;SDS011;7819;48.046;7.642;2023-04-15T13:19:35;3.07;;;1.60;;
2706;SDS011;7819;48.046;7.642;2023-04-15T13:22:01;3.40;;;1.63;;
2706;SDS011;7819;48.046;7.642;2023-04-15T13:24:26;3.50;;;1.50;;
2706;SDS011;7819;48.046;7.642;2023-04-15T13:26:51;4.70;;;1.73;;
2706;SDS011;7819;48.046;7.642;2023-04-15T13:29:17;3.60;;;1.50;;
2706;SDS011;7819;48.046;7.642;2023-04-15T13:31:42;2.57;;;1.60;;
2706;SDS011;7819;48.046;7.642;2023-04-15T13:34:07;2.80;;;1.27;;
2706;SDS011;7819;48.046;7.642;2023-04-15T13:36:33;2.97;;;1.87;;
2706;SDS011;7819;48.046;7.642;2023-04-15T13:38:58;4.53;;;1.90;;
2706;SDS011;7819;48.046;7.642;2023-04-15T13:41:23;4.53;;;1.83;;
2706;SDS011;7819;48.046;7.642;2023-04-15T13:43:49;2.67;;;2.00;;
2706;SDS011;7819;48.046;7.642;2023-04-15T13:46:14;1.47;;;1.20;;
2706;SDS011;7819;48.046;7.642;2023-04-15T13:48:39;3.83;;;1.63;;
2706;SDS011;7819;48.046;7.642;2023-04-15T13:51:05;4.33;;;1.50;;
2706;SDS011;7819;48.046;7.642;2023-04-15T13:53:30;3.50;;;1.90;;
2706;SDS011;7819;48.046;7.642;2023-04-15T13:55:55;3.50;;;1.93;;
2706;SDS011;7819;48.046;7.642;2023-04-15T13:58:20;5.60;;;2.33;;
2706;SDS011;7819;48.046;7.642;2023-04-15T14:00:46;17.93;;;3.70;;
2706;SDS011;7819;48.046;7.642;2023-04-15T14:03:11;3.33;;;1.70;;
2706;SDS011;7819;48.046;7.642;2023-04-15T14:05:36;4.00;;;1.93;;
2706;SDS011;7819;48.046;7.642;2023-04-15T14:08:01;4.83;;;2.17;;
2706;SDS011;7819;48.046;7.642;2023-04-15T14:10:26;3.60;;;1.30;;
2706;SDS011;7819;48.046;7.642;2023-04-15T14:12:52;3.00;;;1.83;;
2706;SDS011;7819;48.046;7.642;2023-04-15T14:15:17;6.60;;;2.00;;
2706;SDS011;7819;48.046;7.642;2023-04-15T14:17:42;3.57;;;1.50;;
2706;SDS011;7819;48.046;7.642;2023-04-15T14:20:07;2.00;;;1.10;;
2706;SDS011;7819;48.046;7.642;2023-04-15T14:22:33;4.00;;;1.60;;
2706;SDS011;7819;48.046;7.642;2023-04-15T14:24:58;2.00;;;1.27;;
2706;SDS011;7819;48.046;7.642;2023-04-15T14:27:24;2.43;;;1.37;;
2706;SDS011;7819;48.046;7.642;2023-04-15T14:29:49;2.40;;;1.47;;
2706;SDS011;7819;48.046;7.642;2023-04-15T14:32:14;3.70;;;1.50;;
2706;SDS011;7819;48.046;7.642;2023-04-15T14:34:40;1.37;;;1.00;;
2706;SDS011;7819;48.046;7.642;2023-04-15T14:37:05;2.30;;;0.90;;
2706;SDS011;7819;48.046;7.642;2023-04-15T14:39:30;1.77;;;1.00;;
2706;SDS011;7819;48.046;7.642;2023-04-15T14:41:56;3.20;;;1.40;;
2706;SDS011;7819;48.046;7.642;2023-04-15T14:44:21;3.00;;;1.00;;
2706;SDS011;7819;48.046;7.642;2023-04-15T14:46:46;2.10;;;1.20;;
2706;SDS011;7819;48.046;7.642;2023-04-15T14:49:11;2.70;;;1.23;;
2706;SDS011;7819;48.046;7.642;2023-04-15T14:51:36;1.77;;;1.07;;
2706;SDS011;7819;48.046;7.642;2023-04-15T14:54:02;2.83;;;1.00;;
2706;SDS011;7819;48.046;7.642;2023-04-15T14:56:27;3.67;;;3.10;;
2706;SDS011;7819;48.046;7.642;2023-04-15T14:58:52;2.60;;;1.30;;
2706;SDS011;7819;48.046;7.642;2023-04-15T15:01:18;1.40;;;0.90;;
2706;SDS011;7819;48.046;7.642;2023-04-15T15:03:43;3.53;;;0.70;;
2706;SDS011;7819;48.046;7.642;2023-04-15T15:06:08;1.60;;;0.77;;
2706;SDS011;7819;48.046;7.642;2023-04-15T15:08:34;3.10;;;1.33;;
2706;SDS011;7819;48.046;7.642;2023-04-15T15:11:00;2.40;;;1.10;;
2706;SDS011;7819;48.046;7.642;2023-04-15T15:13:25;2.43;;;1.00;;
2706;SDS011;7819;48.046;7.642;2023-04-15T15:15:51;2.00;;;1.20;;
2706;SDS011;7819;48.046;7.642;2023-04-15T15:18:16;5.23;;;1.20;;